Dallas, TX (75244)

3:29 PM CST on December 22, 2014 (GMT -0600)
The Hockaday School | Change Station
CLOSE
Current Station
Personal Weather Station
Location: Dallas, TX
Elevation: 600 ft
Nearby Weather Stations

Elev 600 ft 32.91 °N, 96.83 °W | Updated 27 seconds ago

Mostly Cloudy
Mostly Cloudy
60.8 °F
Feels Like 60.8 °F
N
7.0
Wind Variable Wind from WNW
Gusts 15.0 mph

Today
High -- | Low -- °F
--% Chance of Precip.
Yesterday
High -- | Low -- °F
Precip. -- in
7:26 AM 5:25 PM
New Moon, 1% visible
Pressure 29.57 in
Visibility 13.0 miles
Clouds Scattered Clouds 25000 ft
Dew Point 48 °F
Humidity 64%
Rainfall 0.00 in
Snow Depth Not available.
UV 0.7 out of 12
Pollen 11.20 out of 12
Air Quality Not available.
Flu Activity Not available.
METAR KADS 221947Z 28010G16KT 13SM SCT250 17/05 A2957

More Conditions Fewer Conditions

Pressure 29.57 in
Visibility 13.0 miles
Clouds Scattered Clouds 25000 ft
Dew Point 48 °F
Humidity 64%
Rainfall 0.00 in
Snow Depth Not available.
UV 0.7 out of 12
Pollen 11.20 out of 12
Air Quality Not available.
Flu Activity Not available.
METAR KADS 221947Z 28010G16KT 13SM SCT250 17/05 A2957

More Conditions Fewer Conditions

10-Day Weather Forecast

Almanac

Astronomy

Dec. 22, 2014 Rise Set
Actual Time
Civil Twilight
Nautical Twilight
Astronomical Twilight
Moon
Length of Visible Light
Length of Day
Tomorrow will be .
, % of the Moon is Illuminated

Today's Extremes

State Highs State Lows

Community

WunderPhotos

Upload Photos

1,779,682 photos uploaded!

WunderBlogs® & News

Nearby

Air Quality

  Air Quality AQ Index Pollutant
Not available.

Snow Depth

Station Depth Elevation

Earthquake Activity

City Distance Mag. Time & Date
Minimum magnitude displayed is 2.5.

Coastal Water Temperatures

Place Temperature

Nearby Weather Stations